Time;durP1;ratioP1;P1;durP2;ratioP2;P2;SDS_P1;SDS_P2;PMS_P1;PMS_P2;Temp;Humidity;BMP_temperature;BMP_pressure;BME280_temperature;BME280_humidity;BME280_pressure;Samples;Min_cycle;Max_cycle;Signal;HPM_P1;HPM_P2
2023/01/06 00:00:37;;;;;;;11.03;4.10;;;6.80;99.90;;;;;;5035666;28;20546;-48
2023/01/06 00:03:07;;;;;;;8.83;4.07;;;6.80;99.90;;;;;;5025743;28;23067;-55
2023/01/06 00:05:35;;;;;;;9.23;3.87;;;6.80;99.90;;;;;;5032479;28;20206;-51
2023/01/06 00:08:02;;;;;;;10.03;4.40;;;6.80;99.90;;;;;;5022766;28;20231;-52
2023/01/06 00:10:28;;;;;;;8.13;3.83;;;6.80;99.90;;;;;;5024321;28;20196;-52
2023/01/06 00:12:55;;;;;;;11.30;4.07;;;6.80;99.90;;;;;;5041398;28;20195;-50
2023/01/06 00:15:22;;;;;;;10.90;3.67;;;6.80;99.90;;;;;;5021714;28;20219;-50
2023/01/06 00:17:49;;;;;;;10.57;4.17;;;6.80;99.90;;;;;;5033845;28;20763;-55
2023/01/06 00:20:17;;;;;;;11.60;4.60;;;6.80;99.90;;;;;;5024952;28;20583;-48
2023/01/06 00:22:44;;;;;;;9.83;4.17;;;6.90;99.90;;;;;;5039731;28;20920;-51
2023/01/06 00:25:11;;;;;;;6.03;4.30;;;6.90;99.90;;;;;;5028813;28;20722;-49
2023/01/06 00:27:39;;;;;;;11.50;5.30;;;6.90;99.90;;;;;;5033760;28;20216;-48
2023/01/06 00:30:08;;;;;;;7.37;4.10;;;6.90;99.90;;;;;;5018533;28;20289;-52
2023/01/06 00:32:35;;;;;;;8.23;4.77;;;6.90;99.90;;;;;;5020849;28;20203;-56
2023/01/06 00:35:02;;;;;;;15.80;4.87;;;6.90;99.90;;;;;;5023026;28;20679;-54
2023/01/06 00:37:32;;;;;;;9.57;4.60;;;6.90;99.90;;;;;;5019332;28;20207;-49
2023/01/06 00:39:59;;;;;;;10.17;5.43;;;6.90;99.90;;;;;;5027457;28;20218;-53
2023/01/06 00:42:25;;;;;;;10.43;4.83;;;6.90;99.90;;;;;;5028474;28;20199;-52
2023/01/06 00:44:52;;;;;;;7.63;4.47;;;6.90;99.90;;;;;;5020897;28;20204;-54
2023/01/06 00:47:20;;;;;;;12.93;4.90;;;6.90;99.90;;;;;;5027011;28;20784;-50
2023/01/06 00:49:48;;;;;;;11.07;5.00;;;6.90;99.90;;;;;;5026253;28;20662;-54
2023/01/06 00:52:15;;;;;;;12.63;6.17;;;7.00;99.90;;;;;;5033857;28;20219;-49
2023/01/06 00:54:43;;;;;;;10.03;5.33;;;7.00;99.90;;;;;;5021299;28;20227;-55
2023/01/06 00:57:10;;;;;;;11.37;5.80;;;7.00;99.90;;;;;;5032345;28;20223;-49
2023/01/06 00:59:37;;;;;;;16.57;7.03;;;6.90;99.90;;;;;;5030220;28;20218;-54
2023/01/06 01:02:05;;;;;;;12.20;6.40;;;7.00;99.90;;;;;;5020711;28;20207;-50
2023/01/06 01:04:32;;;;;;;17.50;6.90;;;7.00;99.90;;;;;;5023985;28;20200;-55
2023/01/06 01:06:59;;;;;;;17.97;7.57;;;7.00;99.90;;;;;;5021864;28;20220;-58
2023/01/06 01:09:28;;;;;;;14.20;7.57;;;7.00;99.90;;;;;;5026851;28;20444;-52
2023/01/06 01:12:12;;;;;;;20.27;7.83;;;7.00;99.90;;;;;;5026606;28;20211;-54
2023/01/06 01:14:43;;;;;;;21.97;8.87;;;7.10;99.90;;;;;;5023231;28;20296;-52
2023/01/06 01:17:12;;;;;;;13.93;8.70;;;7.10;99.90;;;;;;5020847;28;20580;-48
2023/01/06 01:19:39;;;;;;;16.63;8.57;;;7.00;99.90;;;;;;5031699;28;21807;-52
2023/01/06 01:22:07;;;;;;;19.80;9.47;;;7.10;99.90;;;;;;5022259;28;20195;-48
2023/01/06 01:24:36;;;;;;;22.43;10.27;;;7.10;99.90;;;;;;5025517;28;20193;-57
2023/01/06 01:27:06;;;;;;;22.23;9.20;;;7.10;99.90;;;;;;5029937;28;20743;-52
2023/01/06 01:29:33;;;;;;;20.87;9.93;;;7.10;99.90;;;;;;5023804;28;20192;-54
2023/01/06 01:32:00;;;;;;;20.00;9.70;;;7.10;99.90;;;;;;5033388;28;20245;-53
2023/01/06 01:34:27;;;;;;;24.37;10.40;;;7.10;99.90;;;;;;5017767;28;20203;-53
2023/01/06 01:36:55;;;;;;;17.77;9.67;;;7.10;99.90;;;;;;5025673;28;20259;-53
2023/01/06 01:39:25;;;;;;;15.83;9.57;;;7.10;99.90;;;;;;5019479;28;20597;-47
2023/01/06 01:41:53;;;;;;;18.17;8.93;;;7.10;99.90;;;;;;5030843;28;20291;-57
2023/01/06 01:45:05;;;;;;;20.53;10.13;;;7.10;99.90;;;;;;5017556;28;20208;-48
2023/01/06 01:47:45;;;;;;;21.20;9.60;;;7.10;99.90;;;;;;5030523;28;20319;-50
2023/01/06 01:50:24;;;;;;;17.23;8.07;;;7.10;99.90;;;;;;5020003;28;20242;-47
2023/01/06 01:52:54;;;;;;;14.87;8.50;;;7.10;99.90;;;;;;5031679;28;20253;-52
2023/01/06 01:55:23;;;;;;;14.80;7.90;;;7.10;99.90;;;;;;5022032;28;20204;-45
2023/01/06 01:57:54;;;;;;;19.17;8.33;;;7.10;99.90;;;;;;5032580;28;20294;-51
2023/01/06 02:00:21;;;;;;;16.00;8.40;;;7.10;99.90;;;;;;5021466;28;20243;-48
2023/01/06 02:02:49;;;;;;;14.10;8.53;;;7.20;99.90;;;;;;5037345;28;20223;-53
2023/01/06 02:05:21;;;;;;;15.70;8.30;;;7.20;99.90;;;;;;5021544;28;20670;-49
2023/01/06 02:07:48;;;;;;;14.20;8.60;;;7.20;99.90;;;;;;5032303;28;20276;-56
2023/01/06 02:10:17;;;;;;;11.07;7.10;;;7.20;99.90;;;;;;5027663;28;20203;-50
2023/01/06 02:12:48;;;;;;;19.00;8.27;;;7.20;99.90;;;;;;5029801;28;20203;-44
2023/01/06 02:15:17;;;;;;;20.17;8.57;;;7.20;99.90;;;;;;5029103;28;20307;-55
2023/01/06 02:18:11;;;;;;;14.33;7.87;;;7.20;99.90;;;;;;5054716;28;20218;-48
2023/01/06 02:20:55;;;;;;;13.80;7.77;;;7.30;99.90;;;;;;5010272;28;20227;-55
2023/01/06 02:24:01;;;;;;;10.83;7.47;;;7.30;99.90;;;;;;5031817;28;20223;-49
2023/01/06 02:27:02;;;;;;;13.03;6.90;;;7.30;99.90;;;;;;5029965;28;20280;-49
2023/01/06 02:29:54;;;;;;;10.70;6.83;;;7.30;99.90;;;;;;5029270;28;20199;-49
2023/01/06 02:32:36;;;;;;;12.07;6.63;;;7.30;99.90;;;;;;5029562;28;20584;-46
2023/01/06 02:35:15;;;;;;;11.50;6.83;;;7.30;99.90;;;;;;5030116;28;20222;-54
2023/01/06 02:37:52;;;;;;;8.60;6.87;;;7.30;99.90;;;;;;5016135;28;20305;-50
2023/01/06 02:40:30;;;;;;;8.97;6.53;;;7.30;99.90;;;;;;5036032;28;20215;-48
2023/01/06 02:43:12;;;;;;;9.00;7.03;;;7.30;99.90;;;;;;5028718;28;20623;-54
2023/01/06 02:45:48;;;;;;;9.90;6.07;;;7.30;99.90;;;;;;5019625;28;20238;-58
2023/01/06 02:48:27;;;;;;;11.07;6.87;;;7.30;99.90;;;;;;5025059;28;20219;-48
2023/01/06 02:51:01;;;;;;;8.63;6.90;;;7.30;99.90;;;;;;5031409;28;20761;-52
2023/01/06 02:53:36;;;;;;;13.13;7.43;;;7.30;99.90;;;;;;5017734;28;20575;-45
2023/01/06 02:56:04;;;;;;;9.97;6.87;;;7.30;99.90;;;;;;5033618;28;20247;-56
2023/01/06 02:58:35;;;;;;;9.30;6.50;;;7.30;99.90;;;;;;5039535;28;20210;-47
2023/01/06 03:01:10;;;;;;;8.73;6.33;;;7.30;99.90;;;;;;5037915;28;20222;-54
2023/01/06 03:03:44;;;;;;;9.63;6.93;;;7.30;99.90;;;;;;5022231;28;20855;-53
2023/01/06 03:06:16;;;;;;;9.80;6.67;;;7.30;99.90;;;;;;5034976;28;20226;-45
2023/01/06 03:08:45;;;;;;;11.57;7.70;;;7.30;99.90;;;;;;5014913;28;20219;-52
2023/01/06 03:11:12;;;;;;;10.63;7.00;;;7.30;99.90;;;;;;5033971;28;20214;-46
2023/01/06 03:13:44;;;;;;;11.27;7.50;;;7.30;99.90;;;;;;5037158;28;20218;-54
2023/01/06 03:16:12;;;;;;;12.60;7.40;;;7.40;99.90;;;;;;5027752;28;20301;-46
2023/01/06 03:18:43;;;;;;;11.30;7.43;;;7.40;99.90;;;;;;5025445;28;20289;-54
2023/01/06 03:21:14;;;;;;;10.80;7.43;;;7.40;99.90;;;;;;5027370;28;20219;-44
2023/01/06 03:23:42;;;;;;;15.97;7.90;;;7.40;99.90;;;;;;5018419;28;20956;-49
2023/01/06 03:26:09;;;;;;;7.63;6.83;;;7.50;99.90;;;;;;5031888;28;20227;-43
2023/01/06 03:28:36;;;;;;;12.33;8.30;;;7.50;99.90;;;;;;5028477;28;20192;-51
2023/01/06 03:31:13;;;;;;;15.97;8.20;;;7.50;99.90;;;;;;5032774;28;20321;-51
2023/01/06 03:33:52;;;;;;;10.00;7.20;;;7.50;99.90;;;;;;5022518;28;20198;-50
2023/01/06 03:36:29;;;;;;;11.77;8.47;;;7.50;99.90;;;;;;5021699;28;20220;-45
2023/01/06 03:39:02;;;;;;;11.97;7.67;;;7.50;99.90;;;;;;5020882;28;20206;-51
2023/01/06 03:44:25;;;;;;;13.93;9.23;;;7.50;99.90;;;;;;5022848;28;20207;-52
2023/01/06 03:47:00;;;;;;;12.57;8.90;;;7.60;99.90;;;;;;5031793;28;20690;-54
2023/01/06 03:49:33;;;;;;;13.43;9.43;;;7.60;99.90;;;;;;5026223;28;20208;-52
2023/01/06 03:52:05;;;;;;;14.20;9.50;;;7.60;99.90;;;;;;5028865;28;20287;-55
2023/01/06 03:54:40;;;;;;;18.87;10.10;;;7.60;99.90;;;;;;5016149;28;20537;-56
2023/01/06 03:57:12;;;;;;;16.03;10.37;;;7.60;99.90;;;;;;5031039;28;20234;-46
2023/01/06 03:59:43;;;;;;;16.60;9.80;;;7.70;99.90;;;;;;5039197;28;20211;-55
2023/01/06 04:02:10;;;;;;;16.37;10.30;;;7.70;99.90;;;;;;5022508;28;20223;-50
2023/01/06 04:04:43;;;;;;;18.70;10.27;;;7.70;99.90;;;;;;5018158;28;20270;-49
2023/01/06 04:07:12;;;;;;;20.60;11.33;;;7.70;99.90;;;;;;5032830;28;20216;-52
2023/01/06 04:09:42;;;;;;;20.90;11.50;;;7.70;99.90;;;;;;5012772;28;20211;-50
2023/01/06 04:14:53;;;;;;;22.70;11.77;;;7.80;99.90;;;;;;5036042;28;20292;-54
2023/01/06 04:17:20;;;;;;;20.90;11.83;;;7.80;99.90;;;;;;5040539;28;20215;-55
2023/01/06 04:19:48;;;;;;;24.00;11.67;;;7.80;99.90;;;;;;5022849;28;20281;-56
2023/01/06 04:22:15;;;;;;;26.53;13.00;;;7.90;99.90;;;;;;5049277;28;20219;-51
2023/01/06 04:24:42;;;;;;;22.27;12.40;;;7.90;99.90;;;;;;5036304;28;20287;-47
2023/01/06 04:27:09;;;;;;;28.23;13.83;;;7.90;99.90;;;;;;5029169;28;20222;-54
2023/01/06 04:29:37;;;;;;;24.27;12.53;;;7.90;99.90;;;;;;5037123;28;20667;-46
2023/01/06 04:32:04;;;;;;;24.37;13.37;;;8.00;99.90;;;;;;5035223;28;20294;-53
2023/01/06 04:34:31;;;;;;;27.53;13.90;;;8.00;99.90;;;;;;5018200;28;20211;-49
2023/01/06 04:36:59;;;;;;;25.80;14.10;;;8.00;99.90;;;;;;5039887;28;20215;-56
2023/01/06 04:39:26;;;;;;;27.47;13.73;;;8.10;99.90;;;;;;5027451;28;20203;-48
2023/01/06 04:41:53;;;;;;;28.20;15.50;;;8.10;99.90;;;;;;5023271;28;20215;-56
2023/01/06 04:44:20;;;;;;;27.27;14.40;;;8.10;99.90;;;;;;5026562;28;20211;-48
2023/01/06 04:46:47;;;;;;;24.47;14.00;;;8.10;99.90;;;;;;5034081;28;20697;-56
2023/01/06 04:49:14;;;;;;;32.97;14.17;;;8.20;99.90;;;;;;5030670;28;20222;-55
2023/01/06 04:51:41;;;;;;;28.37;13.90;;;8.20;99.90;;;;;;5026320;28;20857;-56
2023/01/06 04:54:09;;;;;;;23.50;14.50;;;8.20;99.90;;;;;;5027893;28;20210;-52
2023/01/06 04:56:35;;;;;;;25.97;15.23;;;8.20;99.90;;;;;;5010736;28;20340;-44
2023/01/06 04:59:02;;;;;;;29.40;14.87;;;8.30;99.90;;;;;;5030160;28;20215;-54
2023/01/06 05:01:29;;;;;;;26.93;14.03;;;8.30;99.90;;;;;;5020039;28;20694;-46
2023/01/06 05:03:56;;;;;;;33.40;14.83;;;8.30;99.90;;;;;;5030714;28;20188;-57
2023/01/06 05:06:23;;;;;;;29.20;14.17;;;8.40;99.90;;;;;;5024823;28;20229;-49
2023/01/06 05:08:50;;;;;;;31.93;14.80;;;8.40;99.90;;;;;;5036083;28;20199;-48
2023/01/06 05:11:20;;;;;;;28.00;15.20;;;8.40;99.90;;;;;;5032564;28;20192;-51
2023/01/06 05:13:48;;;;;;;28.17;14.90;;;8.50;99.90;;;;;;5021687;28;20242;-57
2023/01/06 05:16:17;;;;;;;34.87;16.23;;;8.50;99.90;;;;;;5032034;28;20717;-55
2023/01/06 05:18:44;;;;;;;31.27;16.17;;;8.50;99.90;;;;;;5020863;28;20900;-53
2023/01/06 05:21:11;;;;;;;32.63;16.37;;;8.60;99.90;;;;;;5029817;28;20225;-55
2023/01/06 05:23:39;;;;;;;46.60;17.07;;;8.70;99.90;;;;;;5021993;28;20283;-53
2023/01/06 05:26:06;;;;;;;36.00;16.43;;;8.80;99.90;;;;;;5030768;28;20230;-54
2023/01/06 05:28:34;;;;;;;36.37;16.53;;;8.80;99.90;;;;;;5015558;28;20292;-44
2023/01/06 05:31:03;;;;;;;36.53;17.63;;;9.00;99.90;;;;;;5035759;28;20199;-56
2023/01/06 05:33:31;;;;;;;31.03;16.87;;;9.00;99.90;;;;;;5024967;28;20279;-48
2023/01/06 05:35:58;;;;;;;31.97;17.50;;;9.10;99.90;;;;;;5032111;28;20199;-54
2023/01/06 05:38:25;;;;;;;34.30;16.27;;;9.10;99.90;;;;;;5027412;28;20207;-48
2023/01/06 05:40:53;;;;;;;34.43;16.83;;;9.10;99.90;;;;;;5024338;28;20195;-54
2023/01/06 05:43:20;;;;;;;35.67;17.20;;;9.20;99.90;;;;;;5020447;28;20210;-50
2023/01/06 05:45:48;;;;;;;32.40;16.40;;;9.20;99.90;;;;;;5025501;28;20210;-52
2023/01/06 05:48:15;;;;;;;36.03;16.93;;;9.20;99.90;;;;;;5032887;28;20208;-52
2023/01/06 05:50:43;;;;;;;37.10;18.30;;;9.20;99.90;;;;;;5022710;28;20283;-54
2023/01/06 05:53:10;;;;;;;33.60;16.87;;;9.30;99.90;;;;;;5029547;28;20214;-50
2023/01/06 05:55:37;;;;;;;32.63;17.00;;;9.20;99.90;;;;;;5023995;28;20202;-51
2023/01/06 05:58:04;;;;;;;31.43;17.03;;;9.20;99.90;;;;;;5020059;28;20705;-51
2023/01/06 06:00:31;;;;;;;32.53;16.20;;;9.30;99.90;;;;;;5035612;28;20203;-49
2023/01/06 06:02:59;;;;;;;37.00;18.20;;;9.30;99.90;;;;;;5035780;28;20238;-53
2023/01/06 06:05:26;;;;;;;40.90;17.50;;;9.30;99.90;;;;;;5033801;28;20210;-44
2023/01/06 06:07:53;;;;;;;51.80;19.90;;;9.30;99.90;;;;;;5025539;28;20216;-56
2023/01/06 06:10:21;;;;;;;39.70;18.73;;;9.30;99.90;;;;;;5027120;28;20224;-47
2023/01/06 06:12:48;;;;;;;29.87;17.90;;;9.30;99.90;;;;;;5013998;28;20387;-54
2023/01/06 06:15:15;;;;;;;34.30;15.93;;;9.40;99.90;;;;;;5038111;28;20204;-55
2023/01/06 06:17:41;;;;;;;41.93;19.00;;;9.40;99.90;;;;;;5032431;28;21074;-53
2023/01/06 06:20:10;;;;;;;34.53;17.47;;;9.40;99.90;;;;;;5030361;28;20258;-54
2023/01/06 06:22:36;;;;;;;37.83;18.07;;;9.40;99.90;;;;;;5029037;28;20219;-46
2023/01/06 06:25:03;;;;;;;29.93;16.50;;;9.40;99.90;;;;;;5028095;28;20200;-57
2023/01/06 06:27:30;;;;;;;33.00;16.93;;;9.40;99.90;;;;;;5025699;28;20219;-53
2023/01/06 06:29:57;;;;;;;30.67;15.50;;;9.40;99.90;;;;;;5019059;28;20700;-50
2023/01/06 06:32:23;;;;;;;26.90;16.37;;;9.40;99.90;;;;;;5027330;28;20200;-48
2023/01/06 06:34:50;;;;;;;33.93;17.67;;;9.40;99.90;;;;;;5040792;28;20207;-50
2023/01/06 06:37:18;;;;;;;25.53;16.17;;;9.40;99.90;;;;;;5024325;28;20229;-47
2023/01/06 06:39:45;;;;;;;27.10;16.10;;;9.40;99.90;;;;;;5042115;28;20211;-55
2023/01/06 06:42:12;;;;;;;38.97;17.07;;;9.40;99.90;;;;;;5024308;28;20776;-45
2023/01/06 06:44:39;;;;;;;34.50;18.53;;;9.40;99.90;;;;;;5012324;28;20229;-53
2023/01/06 06:47:07;;;;;;;48.93;20.10;;;9.40;99.90;;;;;;5033255;28;20227;-52
2023/01/06 06:49:34;;;;;;;35.73;16.73;;;9.40;99.90;;;;;;5033161;28;20186;-56
2023/01/06 06:52:01;;;;;;;26.27;16.77;;;9.40;99.90;;;;;;5034633;28;20755;-53
2023/01/06 06:54:29;;;;;;;25.23;16.53;;;9.40;99.90;;;;;;5030940;28;20203;-49
2023/01/06 06:56:56;;;;;;;28.97;16.30;;;9.40;99.90;;;;;;5035010;28;20230;-56
2023/01/06 06:59:22;;;;;;;25.73;16.57;;;9.40;99.90;;;;;;5028262;28;20200;-45
2023/01/06 07:01:49;;;;;;;35.80;18.67;;;9.50;99.90;;;;;;5017528;28;20211;-53
2023/01/06 07:04:16;;;;;;;25.03;16.67;;;9.40;99.90;;;;;;5040050;28;20200;-45
2023/01/06 07:06:43;;;;;;;24.50;16.40;;;9.50;99.90;;;;;;5032080;28;20211;-52
2023/01/06 07:09:10;;;;;;;32.27;16.90;;;9.40;99.90;;;;;;5033170;28;20628;-47
2023/01/06 07:11:38;;;;;;;30.97;16.03;;;9.40;99.90;;;;;;5038203;28;20190;-53
2023/01/06 07:14:05;;;;;;;41.23;19.13;;;9.50;99.90;;;;;;5038909;28;20207;-49
2023/01/06 07:16:32;;;;;;;23.63;15.90;;;9.40;99.90;;;;;;5015923;28;20247;-56
2023/01/06 07:18:59;;;;;;;24.43;15.70;;;9.40;99.90;;;;;;5031440;28;20203;-54
2023/01/06 07:21:26;;;;;;;32.00;16.07;;;9.40;99.90;;;;;;5033921;28;20209;-45
2023/01/06 07:23:53;;;;;;;24.23;15.87;;;9.40;99.90;;;;;;5027780;28;20214;-56
2023/01/06 07:26:20;;;;;;;23.23;15.60;;;9.40;99.90;;;;;;5032477;28;20223;-46
2023/01/06 07:28:48;;;;;;;22.67;15.23;;;9.40;99.90;;;;;;5031022;28;20203;-54
2023/01/06 07:31:15;;;;;;;21.20;14.37;;;9.40;99.90;;;;;;5039244;28;20616;-46
2023/01/06 07:33:41;;;;;;;18.60;14.30;;;9.40;99.90;;;;;;5014834;28;20211;-54
2023/01/06 07:36:09;;;;;;;22.80;14.40;;;9.40;99.90;;;;;;5036222;28;20298;-49
2023/01/06 07:38:36;;;;;;;18.00;14.53;;;9.40;99.90;;;;;;5030893;28;20217;-55
2023/01/06 07:41:03;;;;;;;21.13;14.70;;;9.50;99.90;;;;;;5032908;28;20725;-53
2023/01/06 07:43:30;;;;;;;20.37;14.67;;;9.50;99.90;;;;;;5035212;28;20219;-51
2023/01/06 07:45:59;;;;;;;20.67;14.10;;;9.40;99.90;;;;;;5038955;28;20207;-55
2023/01/06 07:48:27;;;;;;;24.13;14.83;;;9.50;99.90;;;;;;5011387;28;20230;-43
2023/01/06 07:50:53;;;;;;;20.53;13.80;;;9.50;99.90;;;;;;5041690;28;20633;-51
2023/01/06 07:53:20;;;;;;;19.27;12.93;;;9.50;99.90;;;;;;5023158;28;20200;-46
2023/01/06 07:55:51;;;;;;;18.97;12.77;;;9.50;99.90;;;;;;5023762;28;20196;-52
2023/01/06 07:58:18;;;;;;;27.03;15.20;;;9.50;99.90;;;;;;5023125;28;20208;-46
2023/01/06 08:00:45;;;;;;;19.30;12.83;;;9.50;99.90;;;;;;5037268;28;20203;-50
2023/01/06 08:03:13;;;;;;;17.77;11.47;;;9.50;99.90;;;;;;5021041;28;20223;-48
2023/01/06 08:05:41;;;;;;;21.97;12.97;;;9.50;99.90;;;;;;5029450;28;20343;-51
2023/01/06 08:08:08;;;;;;;22.33;12.77;;;9.50;99.90;;;;;;5025114;28;20230;-54
2023/01/06 08:10:38;;;;;;;23.13;12.43;;;9.50;99.90;;;;;;5024906;28;20290;-56
2023/01/06 08:13:05;;;;;;;17.20;11.30;;;9.60;99.90;;;;;;5033785;28;20208;-46
2023/01/06 08:15:32;;;;;;;16.43;12.67;;;9.60;99.90;;;;;;5029044;28;20203;-51
2023/01/06 08:17:58;;;;;;;17.20;12.07;;;9.60;99.90;;;;;;5036045;28;20223;-57
2023/01/06 08:20:27;;;;;;;18.27;12.57;;;9.60;99.90;;;;;;5009834;28;20212;-51
2023/01/06 08:22:54;;;;;;;15.17;10.60;;;9.60;99.90;;;;;;5039482;28;20219;-56
2023/01/06 08:25:20;;;;;;;16.90;10.33;;;9.60;99.90;;;;;;5025384;28;20203;-48
2023/01/06 08:27:47;;;;;;;13.83;9.80;;;9.60;99.90;;;;;;5025473;28;20251;-53
2023/01/06 08:30:18;;;;;;;17.33;11.70;;;9.60;99.90;;;;;;5020028;28;20212;-47
2023/01/06 08:32:46;;;;;;;24.23;12.37;;;9.60;99.90;;;;;;5029850;28;20748;-54
2023/01/06 08:35:13;;;;;;;14.00;11.00;;;9.60;99.90;;;;;;5020149;28;20599;-43
2023/01/06 08:37:41;;;;;;;14.27;9.77;;;9.60;99.90;;;;;;5035028;28;20211;-52
2023/01/06 08:40:09;;;;;;;17.30;10.03;;;9.60;99.90;;;;;;5034116;28;20195;-50
2023/01/06 08:42:35;;;;;;;13.20;9.33;;;9.60;99.90;;;;;;5020692;28;20211;-51
2023/01/06 08:45:03;;;;;;;21.20;11.50;;;9.60;99.90;;;;;;5028202;28;20206;-50
2023/01/06 08:47:29;;;;;;;9.77;8.77;;;9.70;99.90;;;;;;5020865;28;20230;-53
2023/01/06 08:49:56;;;;;;;18.53;11.63;;;9.70;99.90;;;;;;5021178;28;20210;-44
2023/01/06 08:52:23;;;;;;;11.57;9.13;;;9.70;99.90;;;;;;5017698;28;20196;-54
2023/01/06 08:54:51;;;;;;;15.83;9.90;;;9.70;99.90;;;;;;5026580;28;20191;-45
2023/01/06 08:57:18;;;;;;;18.83;9.37;;;9.70;99.90;;;;;;5019297;28;20452;-56
2023/01/06 08:59:46;;;;;;;22.40;11.07;;;9.70;99.90;;;;;;5023228;28;20219;-48
2023/01/06 09:02:13;;;;;;;8.73;7.47;;;9.70;99.90;;;;;;5035420;28;20208;-49
2023/01/06 09:04:40;;;;;;;9.57;8.50;;;9.60;99.90;;;;;;5044807;28;20210;-52
2023/01/06 09:07:07;;;;;;;9.53;7.57;;;9.70;99.90;;;;;;5009503;28;20986;-49
2023/01/06 09:09:34;;;;;;;7.93;7.23;;;9.70;99.90;;;;;;5024140;28;20277;-56
2023/01/06 09:12:02;;;;;;;9.87;7.43;;;9.60;99.90;;;;;;5022912;28;20246;-42
2023/01/06 09:14:29;;;;;;;9.20;7.67;;;9.60;99.90;;;;;;5032188;28;20216;-56
2023/01/06 09:16:56;;;;;;;10.60;7.70;;;9.60;99.90;;;;;;5022295;28;20227;-45
2023/01/06 09:19:23;;;;;;;12.10;7.53;;;9.60;99.90;;;;;;5028282;28;20187;-49
2023/01/06 09:21:49;;;;;;;14.30;8.63;;;9.70;99.90;;;;;;5034585;28;20192;-45
2023/01/06 09:24:16;;;;;;;9.07;7.40;;;9.70;99.90;;;;;;5022095;28;20348;-57
2023/01/06 09:26:43;;;;;;;10.77;7.23;;;9.70;99.90;;;;;;5029994;28;20215;-56
2023/01/06 09:29:11;;;;;;;12.03;7.20;;;9.70;99.90;;;;;;5017463;28;20206;-54
2023/01/06 09:31:37;;;;;;;13.77;8.70;;;9.70;99.90;;;;;;5028826;28;20697;-53
2023/01/06 09:34:04;;;;;;;8.03;7.20;;;9.70;99.90;;;;;;5018641;28;20199;-45
2023/01/06 09:36:33;;;;;;;10.67;7.00;;;9.80;99.90;;;;;;5024333;28;20718;-55
2023/01/06 09:39:03;;;;;;;11.00;6.57;;;9.80;99.90;;;;;;5014330;28;20744;-50
2023/01/06 09:41:44;;;;;;;10.53;7.77;;;9.80;99.90;;;;;;5032382;28;20207;-55
2023/01/06 09:44:17;;;;;;;10.43;7.00;;;9.80;99.90;;;;;;5025204;28;20357;-49
2023/01/06 09:46:48;;;;;;;12.77;7.37;;;9.80;99.90;;;;;;5028963;28;20585;-56
2023/01/06 09:49:23;;;;;;;16.57;7.73;;;9.80;99.90;;;;;;5022870;28;20207;-53
2023/01/06 09:51:53;;;;;;;12.60;7.90;;;9.80;99.90;;;;;;5025499;28;20736;-46
2023/01/06 09:54:22;;;;;;;11.03;7.77;;;9.80;99.90;;;;;;5015980;28;20262;-51
2023/01/06 09:56:56;;;;;;;13.07;7.87;;;9.80;99.90;;;;;;5028324;28;20229;-45
2023/01/06 09:59:30;;;;;;;9.23;6.87;;;9.80;99.90;;;;;;5023295;28;20188;-51
2023/01/06 10:01:59;;;;;;;10.20;6.70;;;9.80;99.90;;;;;;5021379;28;20286;-45
2023/01/06 10:04:28;;;;;;;8.40;6.20;;;9.80;99.90;;;;;;5028734;28;20250;-55
2023/01/06 10:07:08;;;;;;;10.13;6.87;;;9.80;99.90;;;;;;5019234;28;20235;-48
2023/01/06 10:09:43;;;;;;;7.23;5.87;;;9.80;99.90;;;;;;5012988;28;20211;-55
2023/01/06 10:12:29;;;;;;;9.63;6.73;;;9.80;99.90;;;;;;5031670;28;20831;-53
2023/01/06 10:15:06;;;;;;;7.97;5.33;;;9.80;99.90;;;;;;5032011;28;20207;-50
2023/01/06 10:17:48;;;;;;;8.37;5.20;;;9.80;99.90;;;;;;5026410;28;20255;-56
2023/01/06 10:20:35;;;;;;;7.20;4.67;;;9.80;99.90;;;;;;5021535;28;20222;-57
2023/01/06 10:23:08;;;;;;;6.90;4.83;;;9.80;99.90;;;;;;5025460;28;20298;-48
2023/01/06 10:25:43;;;;;;;6.77;5.00;;;9.80;99.90;;;;;;5002957;28;20207;-51
2023/01/06 10:28:19;;;;;;;5.97;4.83;;;9.80;99.90;;;;;;5028368;28;20246;-50
2023/01/06 10:30:50;;;;;;;5.17;3.97;;;9.90;99.90;;;;;;5020557;28;21659;-51
2023/01/06 10:33:23;;;;;;;5.77;4.47;;;9.90;99.90;;;;;;5027970;28;20325;-53
2023/01/06 10:35:51;;;;;;;3.70;3.23;;;9.90;99.90;;;;;;5024990;28;20307;-54
2023/01/06 10:38:22;;;;;;;7.50;4.60;;;10.00;99.90;;;;;;5017261;28;20254;-42
2023/01/06 10:40:49;;;;;;;4.73;4.33;;;10.00;99.90;;;;;;5009105;28;20215;-56
2023/01/06 10:43:21;;;;;;;5.80;4.50;;;10.00;99.90;;;;;;5044919;28;20551;-49
2023/01/06 10:45:50;;;;;;;5.30;4.60;;;10.00;99.90;;;;;;5021590;28;20213;-55
2023/01/06 10:48:19;;;;;;;4.10;3.70;;;10.00;99.90;;;;;;5025324;28;20210;-50
2023/01/06 10:50:47;;;;;;;6.97;4.10;;;10.00;99.90;;;;;;5026824;28;20218;-52
2023/01/06 10:53:15;;;;;;;5.23;3.60;;;10.00;99.90;;;;;;5029893;28;20210;-48
2023/01/06 10:55:47;;;;;;;3.47;3.17;;;10.00;99.90;;;;;;5031406;28;20269;-52
2023/01/06 10:58:29;;;;;;;3.37;1.70;;;9.90;99.90;;;;;;5015174;28;20298;-49
2023/01/06 11:01:00;;;;;;;2.33;1.30;;;9.70;99.90;;;;;;5029163;28;20215;-54
2023/01/06 11:03:28;;;;;;;4.07;1.00;;;9.60;99.90;;;;;;5021981;28;20222;-56
2023/01/06 11:06:06;;;;;;;0.60;0.60;;;9.50;99.90;;;;;;5027884;28;20200;-50
2023/01/06 11:08:34;;;;;;;0.67;0.67;;;9.40;99.90;;;;;;5025673;28;20204;-53
2023/01/06 11:11:01;;;;;;;1.03;0.50;;;9.40;99.90;;;;;;5024681;28;20216;-55
2023/01/06 11:13:31;;;;;;;0.60;0.60;;;9.30;99.90;;;;;;5007873;28;20204;-53
2023/01/06 11:16:04;;;;;;;0.87;0.50;;;9.40;99.90;;;;;;5021353;28;20308;-56
2023/01/06 11:18:32;;;;;;;1.83;0.70;;;9.30;99.90;;;;;;5024407;28;21222;-53
2023/01/06 11:21:06;;;;;;;0.60;0.60;;;9.30;99.90;;;;;;5027944;28;20207;-55
2023/01/06 11:23:34;;;;;;;1.47;0.50;;;9.30;99.90;;;;;;5026835;28;21045;-57
2023/01/06 11:26:07;;;;;;;1.07;0.53;;;9.30;99.90;;;;;;5039396;28;20211;-52
2023/01/06 11:28:34;;;;;;;0.80;0.80;;;9.40;99.90;;;;;;5029011;28;20195;-54
2023/01/06 11:31:06;;;;;;;1.80;0.70;;;9.40;99.90;;;;;;5022933;28;20215;-55
2023/01/06 11:33:36;;;;;;;1.10;0.50;;;9.40;99.90;;;;;;5019718;28;20282;-50
2023/01/06 11:36:09;;;;;;;1.33;0.57;;;9.40;99.90;;;;;;5030549;28;20249;-54
2023/01/06 11:38:43;;;;;;;1.90;0.60;;;9.30;99.90;;;;;;5039625;28;20196;-57
2023/01/06 11:41:13;;;;;;;0.67;0.40;;;9.30;99.90;;;;;;5031465;28;20205;-47
2023/01/06 11:43:45;;;;;;;1.50;1.00;;;9.30;99.90;;;;;;5023159;28;21007;-57
2023/01/06 11:46:15;;;;;;;2.00;0.50;;;9.30;99.90;;;;;;5026624;28;20231;-49
2023/01/06 11:48:48;;;;;;;0.87;0.40;;;9.30;99.90;;;;;;5028345;28;20207;-57
2023/01/06 11:51:15;;;;;;;3.40;0.50;;;9.40;99.90;;;;;;5028658;28;20681;-48
2023/01/06 11:53:56;;;;;;;1.40;0.60;;;9.40;99.90;;;;;;5042078;28;20191;-56
2023/01/06 11:56:24;;;;;;;2.07;0.43;;;9.40;99.90;;;;;;5027082;28;20215;-46
2023/01/06 11:59:03;;;;;;;1.00;0.77;;;9.40;99.90;;;;;;5019406;28;20222;-51
2023/01/06 12:01:39;;;;;;;0.80;0.40;;;9.40;99.90;;;;;;5024842;28;20281;-52
2023/01/06 12:04:15;;;;;;;3.07;0.70;;;9.40;99.90;;;;;;5031880;28;20226;-55
2023/01/06 12:06:44;;;;;;;2.03;0.40;;;9.40;99.90;;;;;;5031156;28;20298;-57
2023/01/06 12:09:17;;;;;;;4.20;1.03;;;9.40;99.90;;;;;;5038110;28;20200;-47
2023/01/06 12:11:47;;;;;;;1.33;0.50;;;9.40;99.90;;;;;;5030526;28;20203;-55
2023/01/06 12:14:16;;;;;;;4.87;0.90;;;9.40;99.90;;;;;;5011051;28;20265;-51
2023/01/06 12:16:53;;;;;;;2.63;0.80;;;9.40;99.90;;;;;;5028845;28;20212;-52
2023/01/06 12:19:25;;;;;;;3.60;0.67;;;9.40;99.90;;;;;;5019837;28;20243;-49
2023/01/06 12:21:54;;;;;;;2.87;0.83;;;9.50;99.90;;;;;;5027627;28;20731;-50
2023/01/06 12:24:22;;;;;;;5.17;1.03;;;9.50;99.90;;;;;;5023152;28;20717;-48
2023/01/06 12:26:50;;;;;;;2.90;0.80;;;9.50;99.90;;;;;;5026761;28;20222;-56
2023/01/06 12:29:20;;;;;;;6.73;1.00;;;9.50;99.90;;;;;;5012072;28;20211;-49
2023/01/06 12:32:00;;;;;;;6.67;1.20;;;9.40;99.90;;;;;;5025283;28;20212;-54
2023/01/06 12:34:31;;;;;;;4.90;1.10;;;9.40;99.90;;;;;;5012234;28;20230;-53
2023/01/06 12:37:09;;;;;;;3.80;0.80;;;9.40;99.90;;;;;;5029733;28;20791;-57
2023/01/06 12:39:44;;;;;;;5.03;0.83;;;9.40;99.90;;;;;;5025606;28;20203;-53
2023/01/06 12:42:22;;;;;;;3.97;1.07;;;9.40;99.90;;;;;;5023957;28;20666;-46
2023/01/06 12:44:53;;;;;;;3.97;0.80;;;9.30;99.90;;;;;;5017073;28;20301;-50
2023/01/06 12:47:27;;;;;;;1.60;0.63;;;9.40;99.90;;;;;;5032141;28;20223;-54
2023/01/06 12:49:58;;;;;;;6.00;1.10;;;9.40;99.90;;;;;;5018074;28;20615;-51
2023/01/06 12:52:31;;;;;;;5.07;1.10;;;9.40;99.90;;;;;;5035262;28;20209;-53
2023/01/06 12:54:59;;;;;;;3.30;1.13;;;9.50;99.90;;;;;;5026263;28;20410;-51
2023/01/06 12:57:41;;;;;;;3.73;1.10;;;9.50;99.90;;;;;;5032684;28;20584;-51
2023/01/06 13:00:31;;;;;;;4.13;1.10;;;9.50;99.90;;;;;;5043560;28;20216;-56
2023/01/06 13:03:14;;;;;;;5.33;1.30;;;9.50;99.90;;;;;;5024984;28;20203;-54
2023/01/06 13:06:00;;;;;;;3.27;0.93;;;9.50;99.90;;;;;;5022547;28;20282;-46